createdAt,value
2022-09-03T00:02:22.700Z,16.80
2022-09-03T00:05:11.689Z,16.80
2022-09-03T00:08:22.480Z,16.80
2022-09-03T00:11:21.444Z,16.80
2022-09-03T00:14:17.268Z,16.80
2022-09-03T00:17:18.344Z,16.80
2022-09-03T00:20:08.054Z,16.80
2022-09-03T00:22:58.579Z,16.80
2022-09-03T00:25:48.204Z,16.80
2022-09-03T00:28:58.831Z,16.80
2022-09-03T00:31:39.479Z,16.80
2022-09-03T00:34:23.862Z,16.80
2022-09-03T00:36:53.988Z,16.80
2022-09-03T00:39:25.997Z,16.80
2022-09-03T00:42:27.185Z,16.80
2022-09-03T00:45:19.412Z,16.80
2022-09-03T00:48:08.195Z,16.90
2022-09-03T00:51:27.806Z,16.90
2022-09-03T00:54:23.023Z,16.90
2022-09-03T00:57:08.207Z,16.80
2022-09-03T00:59:47.348Z,16.80
2022-09-03T01:02:29.445Z,16.80
2022-09-03T01:06:04.820Z,16.90
2022-09-03T01:09:00.002Z,16.90
2022-09-03T01:12:08.527Z,16.90
2022-09-03T01:15:05.011Z,16.90
2022-09-03T01:17:52.622Z,16.90
2022-09-03T01:20:48.144Z,16.90
2022-09-03T01:23:44.837Z,16.90
2022-09-03T01:26:40.065Z,16.80
2022-09-03T01:29:39.719Z,16.80
2022-09-03T01:33:08.726Z,16.80
2022-09-03T01:35:59.712Z,16.80
2022-09-03T01:39:09.362Z,16.80
2022-09-03T01:42:20.868Z,16.90
2022-09-03T01:45:27.178Z,16.90
2022-09-03T01:48:21.749Z,16.90
2022-09-03T01:51:07.803Z,16.90
2022-09-03T01:54:35.712Z,16.90
2022-09-03T01:57:37.435Z,16.90
2022-09-03T02:00:14.021Z,16.90
2022-09-03T02:02:51.175Z,16.90
2022-09-03T02:05:29.556Z,16.90
2022-09-03T02:11:12.060Z,16.90
2022-09-03T02:13:45.375Z,17.00
2022-09-03T02:16:24.571Z,17.00
2022-09-03T02:19:02.073Z,17.00
2022-09-03T02:21:38.211Z,17.00
2022-09-03T02:24:08.560Z,17.00
2022-09-03T02:26:37.680Z,17.00
2022-09-03T02:29:08.382Z,17.00
2022-09-03T02:31:40.263Z,17.00
2022-09-03T02:34:12.019Z,17.00
2022-09-03T02:36:47.599Z,17.00
2022-09-03T02:39:16.921Z,17.00
2022-09-03T02:41:59.722Z,16.90
2022-09-03T02:44:41.356Z,17.00
2022-09-03T02:47:11.769Z,16.90
2022-09-03T02:49:41.031Z,16.90
2022-09-03T02:52:12.625Z,16.80
2022-09-03T02:54:42.332Z,16.80
2022-09-03T02:57:14.373Z,16.80
2022-09-03T02:59:49.524Z,16.80
2022-09-03T03:02:21.565Z,16.80
2022-09-03T03:04:53.233Z,16.80
2022-09-03T03:07:22.777Z,16.80
2022-09-03T03:09:52.312Z,16.80
2022-09-03T03:12:23.281Z,16.80
2022-09-03T03:14:50.962Z,16.80
2022-09-03T03:17:22.293Z,16.80
2022-09-03T03:19:52.439Z,16.70
2022-09-03T03:22:26.817Z,16.70
2022-09-03T03:24:57.959Z,16.70
2022-09-03T03:27:28.433Z,16.70
2022-09-03T03:30:01.020Z,16.70
2022-09-03T03:32:32.146Z,16.70
2022-09-03T03:35:04.652Z,16.70
2022-09-03T03:37:38.036Z,16.70
2022-09-03T03:40:11.658Z,16.60
2022-09-03T03:42:40.427Z,16.60
2022-09-03T03:45:12.511Z,16.60
2022-09-03T03:47:45.744Z,16.60
2022-09-03T03:50:15.441Z,16.60
2022-09-03T03:52:44.583Z,16.60
2022-09-03T03:55:15.961Z,16.50
2022-09-03T03:57:47.880Z,16.60
2022-09-03T04:00:22.320Z,16.60
2022-09-03T04:02:56.090Z,16.50
2022-09-03T04:05:28.437Z,16.60
2022-09-03T04:08:08.292Z,16.50
2022-09-03T04:10:41.387Z,16.50
2022-09-03T04:13:11.309Z,16.50
2022-09-03T04:15:44.224Z,16.50
2022-09-03T04:18:13.686Z,16.60
2022-09-03T04:20:44.931Z,16.50
2022-09-03T04:23:16.645Z,16.60
2022-09-03T04:25:54.199Z,16.50
2022-09-03T04:28:25.626Z,16.50
2022-09-03T04:30:58.033Z,16.50
2022-09-03T04:33:31.956Z,16.50
2022-09-03T04:36:20.968Z,16.60
2022-09-03T04:38:54.160Z,16.60
2022-09-03T04:41:27.505Z,16.60
2022-09-03T04:43:58.473Z,16.60
2022-09-03T04:46:35.766Z,16.60
2022-09-03T04:49:06.365Z,16.60
2022-09-03T04:51:40.709Z,16.60
2022-09-03T04:54:14.813Z,16.70
2022-09-03T04:56:42.266Z,16.70
2022-09-03T04:59:16.709Z,16.70
2022-09-03T05:01:45.844Z,16.60
2022-09-03T05:04:13.537Z,16.70
2022-09-03T05:06:43.424Z,16.70
2022-09-03T05:09:13.649Z,16.70
2022-09-03T05:11:42.248Z,16.80
2022-09-03T05:14:12.902Z,16.80
2022-09-03T05:16:44.044Z,16.90
2022-09-03T05:19:31.682Z,16.90
2022-09-03T05:22:01.441Z,16.90
2022-09-03T05:24:29.198Z,17.00
2022-09-03T05:27:00.838Z,17.00
2022-09-03T05:29:29.265Z,17.00
2022-09-03T05:32:02.179Z,17.10
2022-09-03T05:34:37.177Z,17.10
2022-09-03T05:37:08.655Z,17.10
2022-09-03T05:39:41.713Z,17.10
2022-09-03T05:42:13.962Z,17.20
2022-09-03T05:44:44.083Z,17.20
2022-09-03T05:47:14.881Z,17.20
2022-09-03T05:49:44.250Z,17.20
2022-09-03T05:52:15.213Z,17.20
2022-09-03T05:54:44.733Z,17.30
2022-09-03T05:57:15.069Z,17.30
2022-09-03T05:59:45.216Z,17.30
2022-09-03T06:02:18.246Z,17.30
2022-09-03T06:04:51.707Z,17.30
2022-09-03T06:07:22.704Z,17.30
2022-09-03T06:09:55.248Z,17.30
2022-09-03T06:12:27.059Z,17.40
2022-09-03T06:14:57.241Z,17.40
2022-09-03T06:17:29.106Z,17.50
2022-09-03T06:20:01.387Z,17.40
2022-09-03T06:22:34.445Z,17.40
2022-09-03T06:25:04.757Z,17.40
2022-09-03T06:27:37.766Z,17.40
2022-09-03T06:30:10.267Z,17.50
2022-09-03T06:32:53.137Z,17.50
2022-09-03T06:35:25.865Z,17.60
2022-09-03T06:38:00.929Z,17.60
2022-09-03T06:40:35.035Z,17.60
2022-09-03T06:43:09.832Z,17.60
2022-09-03T06:45:46.412Z,17.60
2022-09-03T06:48:18.563Z,17.60
2022-09-03T06:50:58.557Z,17.60
2022-09-03T06:53:32.156Z,17.50
2022-09-03T06:56:07.532Z,17.60
2022-09-03T06:58:44.056Z,17.80
2022-09-03T07:01:22.887Z,17.90
2022-09-03T07:04:06.359Z,17.90
2022-09-03T07:06:40.872Z,17.90
2022-09-03T07:09:13.825Z,17.90
2022-09-03T07:11:48.365Z,17.90
2022-09-03T07:14:31.056Z,17.90
2022-09-03T07:17:00.893Z,18.00
2022-09-03T07:19:30.676Z,18.00
2022-09-03T07:21:58.735Z,18.10
2022-09-03T07:24:28.839Z,18.10
2022-09-03T07:26:58.199Z,18.10
2022-09-03T07:29:29.984Z,18.10
2022-09-03T07:32:02.119Z,18.10
2022-09-03T07:34:33.120Z,18.10
2022-09-03T07:37:03.192Z,18.20
2022-09-03T07:39:34.927Z,18.20
2022-09-03T07:42:06.858Z,18.30
2022-09-03T07:44:40.491Z,18.30
2022-09-03T07:47:10.654Z,18.30
2022-09-03T07:49:40.229Z,18.40
2022-09-03T07:52:12.257Z,18.40
2022-09-03T07:54:48.379Z,18.50
2022-09-03T07:57:24.132Z,18.60
2022-09-03T07:59:55.877Z,18.60
2022-09-03T08:02:23.645Z,18.60
2022-09-03T08:04:54.701Z,18.50
2022-09-03T08:07:27.827Z,18.50
2022-09-03T08:09:59.037Z,18.60
2022-09-03T08:12:33.049Z,18.70
2022-09-03T08:15:04.997Z,18.80
2022-09-03T08:17:36.703Z,18.90
2022-09-03T08:20:05.159Z,19.00
2022-09-03T08:22:37.932Z,19.10
2022-09-03T08:25:09.790Z,19.20
2022-09-03T08:27:44.504Z,19.30
2022-09-03T08:30:17.690Z,19.30
2022-09-03T08:32:48.901Z,19.30
2022-09-03T08:35:18.502Z,19.30
2022-09-03T08:37:48.968Z,19.20
2022-09-03T08:40:18.807Z,19.20
2022-09-03T08:43:19.828Z,19.20
2022-09-03T08:45:48.787Z,19.10
2022-09-03T08:48:26.067Z,19.20
2022-09-03T08:51:03.868Z,19.20
2022-09-03T08:53:51.386Z,19.40
2022-09-03T08:56:38.422Z,19.40
2022-09-03T08:59:08.935Z,19.60
2022-09-03T09:02:36.181Z,19.70
2022-09-03T09:05:40.149Z,19.70
2022-09-03T09:08:22.145Z,19.80
2022-09-03T09:11:40.978Z,19.80
2022-09-03T09:14:36.925Z,19.80
2022-09-03T09:17:41.663Z,19.90
2022-09-03T09:20:47.585Z,19.70
2022-09-03T09:23:33.900Z,19.70
2022-09-03T09:26:07.417Z,19.80
2022-09-03T09:28:41.999Z,19.90
2022-09-03T09:31:19.206Z,20.00
2022-09-03T09:33:52.479Z,20.10
2022-09-03T09:36:22.978Z,20.20
2022-09-03T09:38:55.953Z,20.20
2022-09-03T09:41:29.977Z,20.30
2022-09-03T09:44:09.326Z,20.30
2022-09-03T09:46:41.688Z,20.40
2022-09-03T09:49:46.853Z,20.50
2022-09-03T09:52:16.842Z,20.50
2022-09-03T09:54:50.806Z,20.50
2022-09-03T09:57:23.400Z,20.50
2022-09-03T10:00:11.398Z,20.50
2022-09-03T10:02:57.527Z,20.50
2022-09-03T10:05:33.841Z,20.60
2022-09-03T10:08:07.613Z,20.60
2022-09-03T10:10:47.284Z,20.60
2022-09-03T10:13:29.512Z,20.60
2022-09-03T10:16:32.623Z,20.60
2022-09-03T10:19:13.953Z,20.60
2022-09-03T10:22:18.166Z,20.70
2022-09-03T10:25:02.716Z,20.80
2022-09-03T10:27:33.648Z,20.80
2022-09-03T10:30:01.580Z,20.90
2022-09-03T10:32:53.625Z,20.90
2022-09-03T10:35:49.107Z,21.00
2022-09-03T10:38:40.929Z,21.00
2022-09-03T10:41:50.240Z,21.10
2022-09-03T10:44:56.340Z,21.10
2022-09-03T10:48:04.549Z,21.20
2022-09-03T10:51:08.575Z,21.10
2022-09-03T10:54:20.781Z,21.00
2022-09-03T10:57:14.369Z,21.10
2022-09-03T11:00:16.365Z,21.00
2022-09-03T11:03:15.358Z,21.10
2022-09-03T11:05:54.304Z,21.20
2022-09-03T11:08:49.193Z,21.30
2022-09-03T11:11:53.832Z,21.50
2022-09-03T11:14:34.285Z,21.60
2022-09-03T11:17:25.319Z,21.80
2022-09-03T11:20:25.714Z,21.90
2022-09-03T11:23:10.033Z,21.90
2022-09-03T11:25:49.527Z,22.00
2022-09-03T11:28:58.217Z,22.10
2022-09-03T11:32:11.508Z,22.30
2022-09-03T11:34:58.033Z,22.40
2022-09-03T11:37:34.066Z,22.50
2022-09-03T11:40:35.384Z,22.50
2022-09-03T11:43:31.481Z,22.30
2022-09-03T11:46:17.427Z,22.20
2022-09-03T11:49:11.664Z,22.00
2022-09-03T11:51:42.625Z,21.90
2022-09-03T11:54:18.609Z,22.00
2022-09-03T11:56:48.728Z,22.10
2022-09-03T11:59:27.791Z,22.20
2022-09-03T12:02:24.449Z,22.30
2022-09-03T12:05:37.953Z,22.50
2022-09-03T12:08:44.252Z,23.10
2022-09-03T12:12:27.657Z,23.40
2022-09-03T12:15:37.199Z,23.70
2022-09-03T12:18:24.824Z,24.00
2022-09-03T12:20:57.276Z,24.00
2022-09-03T12:23:45.530Z,24.00
2022-09-03T12:26:19.921Z,24.10
2022-09-03T12:28:51.836Z,24.30
2022-09-03T12:31:30.180Z,24.60
2022-09-03T12:34:14.586Z,24.60
2022-09-03T12:36:55.983Z,24.50
2022-09-03T12:42:26.952Z,25.00
2022-09-03T12:44:55.049Z,25.00
2022-09-03T12:47:35.659Z,25.20
2022-09-03T12:50:29.972Z,25.40
2022-09-03T12:53:04.263Z,26.30
2022-09-03T12:55:51.151Z,27.10
2022-09-03T12:58:36.794Z,27.80
2022-09-03T13:01:31.864Z,28.60
2022-09-03T13:04:08.935Z,29.90
2022-09-03T13:07:13.202Z,31.80
2022-09-03T13:09:44.490Z,32.80
2022-09-03T13:12:53.542Z,33.70
2022-09-03T13:15:26.244Z,33.40
2022-09-03T13:18:20.649Z,32.20
2022-09-03T13:21:26.593Z,31.00
2022-09-03T13:24:26.846Z,29.40
2022-09-03T13:27:21.477Z,28.00
2022-09-03T13:30:14.554Z,26.90
2022-09-03T13:33:29.635Z,26.30
2022-09-03T13:36:05.366Z,25.70
2022-09-03T13:39:08.761Z,25.30
2022-09-03T13:41:58.336Z,25.10
2022-09-03T13:44:52.258Z,25.20
2022-09-03T13:48:24.091Z,25.60
2022-09-03T13:51:09.459Z,27.00
2022-09-03T13:54:30.977Z,27.20
2022-09-03T13:57:22.552Z,26.60
2022-09-03T14:00:11.703Z,25.90
2022-09-03T14:03:20.784Z,25.40
2022-09-03T14:06:32.478Z,24.90
2022-09-03T14:09:49.454Z,24.40
2022-09-03T14:12:42.665Z,24.10
2022-09-03T14:15:55.447Z,23.90
2022-09-03T14:18:40.510Z,23.80
2022-09-03T14:21:16.211Z,23.70
2022-09-03T14:24:12.550Z,23.70
2022-09-03T14:26:54.689Z,23.60
2022-09-03T14:29:31.790Z,23.50
2022-09-03T14:32:21.323Z,23.50
2022-09-03T14:35:17.189Z,23.40
2022-09-03T14:38:29.316Z,23.30
2022-09-03T14:41:32.267Z,23.30
2022-09-03T14:44:29.036Z,23.30
2022-09-03T14:47:16.099Z,23.20
2022-09-03T14:50:13.286Z,23.30
2022-09-03T14:53:03.696Z,23.30
2022-09-03T14:56:00.136Z,23.40
2022-09-03T14:59:05.658Z,23.40
2022-09-03T15:01:39.471Z,23.40
2022-09-03T15:04:46.687Z,23.40
2022-09-03T15:07:52.150Z,23.50
2022-09-03T15:10:47.635Z,23.50
2022-09-03T15:13:26.234Z,23.50
2022-09-03T15:16:51.334Z,23.50
2022-09-03T15:19:56.548Z,23.50
2022-09-03T15:22:52.976Z,23.50
2022-09-03T15:25:47.173Z,23.50
2022-09-03T15:28:53.472Z,23.40
2022-09-03T15:31:59.381Z,23.30
2022-09-03T15:34:48.983Z,23.30
2022-09-03T15:38:08.098Z,23.30
2022-09-03T15:40:51.523Z,23.40
2022-09-03T15:43:33.180Z,23.40
2022-09-03T15:46:16.853Z,23.50
2022-09-03T15:49:02.917Z,23.50
2022-09-03T15:51:43.427Z,23.50
2022-09-03T15:54:18.319Z,23.60
2022-09-03T15:57:33.920Z,23.60
2022-09-03T16:00:07.830Z,23.60
2022-09-03T16:03:09.612Z,23.60
2022-09-03T16:05:59.112Z,23.60
2022-09-03T16:09:06.963Z,23.70
2022-09-03T16:12:29.121Z,23.70
2022-09-03T16:15:25.572Z,23.60
2022-09-03T16:18:04.857Z,23.50
2022-09-03T16:21:00.407Z,23.40
2022-09-03T16:23:47.625Z,23.30
2022-09-03T16:26:54.406Z,23.20
2022-09-03T16:29:30.486Z,23.10
2022-09-03T16:32:27.550Z,23.00
2022-09-03T16:35:04.669Z,22.90
2022-09-03T16:38:04.133Z,22.80
2022-09-03T16:40:47.554Z,22.70
2022-09-03T16:43:41.616Z,22.60
2022-09-03T16:46:49.583Z,22.60
2022-09-03T16:49:46.961Z,22.50
2022-09-03T16:52:18.371Z,22.50
2022-09-03T16:55:42.014Z,22.40
2022-09-03T16:58:42.117Z,22.40
2022-09-03T17:01:47.067Z,22.30
2022-09-03T17:04:33.758Z,22.30
2022-09-03T17:07:35.798Z,22.20
2022-09-03T17:10:25.094Z,22.10
2022-09-03T17:13:51.676Z,22.00
2022-09-03T17:16:57.604Z,21.90
2022-09-03T17:20:03.590Z,21.90
2022-09-03T17:23:14.311Z,21.90
2022-09-03T17:25:54.051Z,21.90
2022-09-03T17:28:44.704Z,21.80
2022-09-03T17:31:57.941Z,21.80
2022-09-03T17:34:49.730Z,21.70
2022-09-03T17:37:41.689Z,21.70
2022-09-03T17:40:29.779Z,21.70
2022-09-03T17:43:34.363Z,21.70
2022-09-03T17:46:42.097Z,21.60
2022-09-03T17:49:29.804Z,21.60
2022-09-03T17:52:22.362Z,21.60
2022-09-03T17:55:05.292Z,21.60
2022-09-03T17:58:11.121Z,21.50
2022-09-03T18:01:12.022Z,21.40
2022-09-03T18:03:57.323Z,21.40
2022-09-03T18:06:41.152Z,21.40
2022-09-03T18:09:38.146Z,21.40
2022-09-03T18:13:01.321Z,21.30
2022-09-03T18:15:39.962Z,21.30
2022-09-03T18:18:19.538Z,21.20
2022-09-03T18:21:27.611Z,21.10
2022-09-03T18:24:45.675Z,21.10
2022-09-03T18:27:51.690Z,21.10
2022-09-03T18:30:39.940Z,21.00
2022-09-03T18:33:31.472Z,21.00
2022-09-03T18:36:21.501Z,21.00
2022-09-03T18:39:12.407Z,21.00
2022-09-03T18:42:15.424Z,21.00
2022-09-03T18:45:27.702Z,20.90
2022-09-03T18:48:57.496Z,20.90
2022-09-03T18:52:31.032Z,20.80
2022-09-03T18:55:34.452Z,20.80
2022-09-03T18:59:11.476Z,20.80
2022-09-03T19:02:03.091Z,20.80
2022-09-03T19:05:20.479Z,20.80
2022-09-03T19:08:43.469Z,20.80
2022-09-03T19:11:46.168Z,20.80
2022-09-03T19:15:29.051Z,20.80
2022-09-03T19:18:39.467Z,20.70
2022-09-03T19:21:55.508Z,20.70
2022-09-03T19:24:51.940Z,20.70
2022-09-03T19:27:59.645Z,20.60
2022-09-03T19:31:26.492Z,20.60
2022-09-03T19:34:42.466Z,20.60
2022-09-03T19:37:47.484Z,20.60
2022-09-03T19:40:59.549Z,20.50
2022-09-03T19:44:30.437Z,20.50
2022-09-03T19:47:26.909Z,20.60
2022-09-03T19:50:43.351Z,20.60
2022-09-03T19:53:37.550Z,20.50
2022-09-03T19:56:42.506Z,20.50
2022-09-03T19:59:39.777Z,20.50
2022-09-03T20:02:31.048Z,20.50
2022-09-03T20:05:23.517Z,20.40
2022-09-03T20:08:21.599Z,20.40
2022-09-03T20:10:53.428Z,20.40
2022-09-03T20:13:26.036Z,20.30
2022-09-03T20:16:20.821Z,20.30
2022-09-03T20:19:48.081Z,20.30
2022-09-03T20:22:48.405Z,20.20
2022-09-03T20:26:11.249Z,20.20
2022-09-03T20:28:49.968Z,20.20
2022-09-03T20:31:40.075Z,20.30
2022-09-03T20:34:58.262Z,20.30
2022-09-03T20:37:59.820Z,20.30
2022-09-03T20:41:04.878Z,20.30
2022-09-03T20:44:00.703Z,20.20
2022-09-03T20:47:02.208Z,20.20
2022-09-03T20:49:45.926Z,20.20
2022-09-03T20:52:48.665Z,20.10
2022-09-03T20:55:47.290Z,20.10
2022-09-03T20:58:34.595Z,20.10
2022-09-03T21:01:33.085Z,20.10
2022-09-03T21:04:23.204Z,20.10
2022-09-03T21:07:40.019Z,20.00
2022-09-03T21:10:38.410Z,20.00
2022-09-03T21:13:49.162Z,20.00
2022-09-03T21:17:09.099Z,19.90
2022-09-03T21:19:58.854Z,19.90
2022-09-03T21:23:01.285Z,19.80
2022-09-03T21:25:50.265Z,19.70
2022-09-03T21:28:28.331Z,19.60
2022-09-03T21:31:04.983Z,19.60
2022-09-03T21:33:39.526Z,19.60
2022-09-03T21:36:15.780Z,19.60
2022-09-03T21:38:58.702Z,19.60
2022-09-03T21:42:05.772Z,19.60
2022-09-03T21:44:55.819Z,19.50
2022-09-03T21:47:29.998Z,19.50
2022-09-03T21:50:30.269Z,19.50
2022-09-03T21:53:37.128Z,19.40
2022-09-03T21:56:22.137Z,19.40
2022-09-03T21:59:04.668Z,19.40
2022-09-03T22:02:17.933Z,19.40
2022-09-03T22:04:46.307Z,19.40
2022-09-03T22:07:19.898Z,19.40
2022-09-03T22:10:00.389Z,19.30
2022-09-03T22:13:00.864Z,19.30
2022-09-03T22:15:33.087Z,19.20
2022-09-03T22:18:29.413Z,19.20
2022-09-03T22:21:20.369Z,19.20
2022-09-03T22:24:23.856Z,19.30
2022-09-03T22:27:20.868Z,19.30
2022-09-03T22:30:15.243Z,19.30
2022-09-03T22:33:27.329Z,19.30
2022-09-03T22:36:15.138Z,19.30
2022-09-03T22:39:41.825Z,19.20
2022-09-03T22:42:41.339Z,19.20
2022-09-03T22:45:20.375Z,19.10
2022-09-03T22:48:22.131Z,19.10
2022-09-03T22:50:53.504Z,19.00
2022-09-03T22:53:59.992Z,19.00
2022-09-03T22:56:32.733Z,18.90
2022-09-03T22:59:35.850Z,18.90
2022-09-03T23:02:23.467Z,18.90
2022-09-03T23:05:17.121Z,18.90
2022-09-03T23:08:31.409Z,18.80
2022-09-03T23:11:09.189Z,18.80
2022-09-03T23:13:48.151Z,18.70
2022-09-03T23:16:58.374Z,18.60
2022-09-03T23:19:48.959Z,18.60
2022-09-03T23:22:45.022Z,18.50
2022-09-03T23:25:44.169Z,18.60
2022-09-03T23:28:39.402Z,18.60
2022-09-03T23:31:27.208Z,18.60
2022-09-03T23:33:57.333Z,18.60
2022-09-03T23:37:22.430Z,18.60
2022-09-03T23:40:14.897Z,18.60
2022-09-03T23:42:54.269Z,18.60
2022-09-03T23:46:03.296Z,18.60
2022-09-03T23:49:08.467Z,18.60
2022-09-03T23:52:15.088Z,18.50
2022-09-03T23:54:49.263Z,18.50
2022-09-03T23:57:59.205Z,18.50
